sensor_id;sensor_type;location;lat;lon;timestamp;pressure;altitude;pressure_sealevel;temperature;humidity
42691;BME280;28306;55.744;37.578;2023-05-22T04:29:58;100554.59;;;23.63;27.21
42691;BME280;28306;55.744;37.578;2023-05-22T04:32:26;100552.09;;;23.62;27.27
42691;BME280;28306;55.744;37.578;2023-05-22T04:34:53;100549.38;;;23.62;27.27
42691;BME280;28306;55.744;37.578;2023-05-22T04:37:19;100551.28;;;23.61;27.47
42691;BME280;28306;55.744;37.578;2023-05-22T04:39:45;100545.03;;;23.61;27.23
42691;BME280;28306;55.744;37.578;2023-05-22T04:42:13;100544.19;;;23.60;27.49
42691;BME280;28306;55.744;37.578;2023-05-22T04:44:40;100545.03;;;23.61;27.39
42691;BME280;28306;55.744;37.578;2023-05-22T04:47:09;100554.81;;;23.62;27.28
42691;BME280;28306;55.744;37.578;2023-05-22T04:49:41;100560.25;;;23.62;27.25
42691;BME280;28306;55.744;37.578;2023-05-22T04:52:07;100552.94;;;23.62;27.14
42691;BME280;28306;55.744;37.578;2023-05-22T04:54:36;100548.34;;;23.63;27.17
42691;BME280;28306;55.744;37.578;2023-05-22T04:57:01;100550.81;;;23.64;27.46
42691;BME280;28306;55.744;37.578;2023-05-22T04:59:30;100550.00;;;23.64;27.42
42691;BME280;28306;55.744;37.578;2023-05-22T05:01:55;100551.06;;;23.63;27.31
42691;BME280;28306;55.744;37.578;2023-05-22T05:04:23;100550.00;;;23.64;27.26
42691;BME280;28306;55.744;37.578;2023-05-22T05:06:48;100543.72;;;23.63;27.29
42691;BME280;28306;55.744;37.578;2023-05-22T05:09:14;100551.88;;;23.63;27.21
42691;BME280;28306;55.744;37.578;2023-05-22T05:11:39;100551.06;;;23.63;27.50
42691;BME280;28306;55.744;37.578;2023-05-22T05:14:05;100552.72;;;23.64;27.28
42691;BME280;28306;55.744;37.578;2023-05-22T05:16:30;100561.91;;;23.63;27.35
42691;BME280;28306;55.744;37.578;2023-05-22T05:18:56;100556.72;;;23.61;27.37
42691;BME280;28306;55.744;37.578;2023-05-22T05:21:21;100561.34;;;23.61;27.49
42691;BME280;28306;55.744;37.578;2023-05-22T05:23:47;100559.66;;;23.60;27.42
42691;BME280;28306;55.744;37.578;2023-05-22T05:26:13;100559.66;;;23.60;27.36
42691;BME280;28306;55.744;37.578;2023-05-22T05:28:38;100558.00;;;23.58;27.37
42691;BME280;28306;55.744;37.578;2023-05-22T05:31:05;100547.38;;;23.57;27.43
42691;BME280;28306;55.744;37.578;2023-05-22T05:33:48;100549.28;;;23.56;27.31
42691;BME280;28306;55.744;37.578;2023-05-22T05:36:26;100555.53;;;23.57;27.43
42691;BME280;28306;55.744;37.578;2023-05-22T05:38:52;100568.28;;;23.56;27.52
42691;BME280;28306;55.744;37.578;2023-05-22T05:41:19;100569.09;;;23.57;27.36
42691;BME280;28306;55.744;37.578;2023-05-22T05:43:50;100572.91;;;23.56;27.45
42691;BME280;28306;55.744;37.578;2023-05-22T05:46:23;100568.53;;;23.55;27.51
42691;BME280;28306;55.744;37.578;2023-05-22T05:48:49;100571.25;;;23.55;27.43
42691;BME280;28306;55.744;37.578;2023-05-22T05:51:15;100573.13;;;23.54;27.26
42691;BME280;28306;55.744;37.578;2023-05-22T05:53:41;100581.28;;;23.54;27.43
42691;BME280;28306;55.744;37.578;2023-05-22T05:56:07;100581.28;;;23.54;27.18
42691;BME280;28306;55.744;37.578;2023-05-22T05:58:34;100594.88;;;23.54;27.36
42691;BME280;28306;55.744;37.578;2023-05-22T06:01:29;100595.91;;;23.53;27.31
42691;BME280;28306;55.744;37.578;2023-05-22T06:03:57;100594.25;;;23.52;27.35
42691;BME280;28306;55.744;37.578;2023-05-22T06:06:30;100589.03;;;23.51;27.27
42691;BME280;28306;55.744;37.578;2023-05-22T06:09:08;100590.72;;;23.52;27.44
42691;BME280;28306;55.744;37.578;2023-05-22T06:11:48;100583.63;;;23.51;27.33
42691;BME280;28306;55.744;37.578;2023-05-22T06:14:14;100586.34;;;23.51;27.46
42691;BME280;28306;55.744;37.578;2023-05-22T06:16:40;100586.34;;;23.51;27.46
42691;BME280;28306;55.744;37.578;2023-05-22T06:19:05;100584.47;;;23.51;27.31
42691;BME280;28306;55.744;37.578;2023-05-22T06:21:31;100580.66;;;23.52;27.39
42691;BME280;28306;55.744;37.578;2023-05-22T06:23:58;100573.38;;;23.53;27.59
42691;BME280;28306;55.744;37.578;2023-05-22T06:26:23;100570.41;;;23.54;27.26
42691;BME280;28306;55.744;37.578;2023-05-22T06:28:50;100576.66;;;23.55;27.32
42691;BME280;28306;55.744;37.578;2023-05-22T06:31:20;100566.38;;;23.57;27.29
42691;BME280;28306;55.744;37.578;2023-05-22T06:33:55;100588.97;;;23.57;27.25
42691;BME280;28306;55.744;37.578;2023-05-22T06:36:22;100579.97;;;23.57;27.22
42691;BME280;28306;55.744;37.578;2023-05-22T06:38:49;100579.72;;;23.58;27.33
42691;BME280;28306;55.744;37.578;2023-05-22T06:41:38;100580.81;;;23.57;27.53
42691;BME280;28306;55.744;37.578;2023-05-22T06:44:06;100574.53;;;23.57;27.52
42691;BME280;28306;55.744;37.578;2023-05-22T06:46:36;100563.66;;;23.57;27.31
42691;BME280;28306;55.744;37.578;2023-05-22T06:49:02;100552.00;;;23.56;27.40
42691;BME280;28306;55.744;37.578;2023-05-22T06:51:50;100549.84;;;23.58;27.33
42691;BME280;28306;55.744;37.578;2023-05-22T06:54:15;100559.09;;;23.57;27.28
42691;BME280;28306;55.744;37.578;2023-05-22T06:56:44;100572.19;;;23.61;27.22
42691;BME280;28306;55.744;37.578;2023-05-22T06:59:14;100584.69;;;23.62;27.16
42691;BME280;28306;55.744;37.578;2023-05-22T07:01:48;100587.19;;;23.63;27.23
42691;BME280;28306;55.744;37.578;2023-05-22T07:04:19;100548.34;;;23.63;27.35
42691;BME280;28306;55.744;37.578;2023-05-22T07:06:55;100558.16;;;23.64;27.17
42691;BME280;28306;55.744;37.578;2023-05-22T07:09:22;100561.44;;;23.66;27.22
42691;BME280;28306;55.744;37.578;2023-05-22T07:11:47;100555.78;;;23.67;27.29
42691;BME280;28306;55.744;37.578;2023-05-22T07:14:14;100552.00;;;23.68;27.36
42691;BME280;28306;55.744;37.578;2023-05-22T07:16:41;100541.72;;;23.70;27.18
42691;BME280;28306;55.744;37.578;2023-05-22T07:19:07;100549.88;;;23.70;27.17
42691;BME280;28306;55.744;37.578;2023-05-22T07:21:33;100553.19;;;23.72;27.26
42691;BME280;28306;55.744;37.578;2023-05-22T07:24:01;100550.47;;;23.72;27.21
42691;BME280;28306;55.744;37.578;2023-05-22T07:26:34;100555.66;;;23.74;27.09
42691;BME280;28306;55.744;37.578;2023-05-22T07:29:04;100573.88;;;23.73;27.27
42691;BME280;28306;55.744;37.578;2023-05-22T07:31:30;100566.75;;;23.72;27.06
42691;BME280;28306;55.744;37.578;2023-05-22T07:33:58;100565.94;;;23.72;27.13
42691;BME280;28306;55.744;37.578;2023-05-22T07:36:25;100560.50;;;23.72;27.23
42691;BME280;28306;55.744;37.578;2023-05-22T07:38:50;100554.84;;;23.73;27.26
42691;BME280;28306;55.744;37.578;2023-05-22T07:41:16;100570.91;;;23.75;27.06
42691;BME280;28306;55.744;37.578;2023-05-22T07:43:41;100565.00;;;23.78;27.08
42691;BME280;28306;55.744;37.578;2023-05-22T07:46:10;100564.78;;;23.80;27.05
42691;BME280;28306;55.744;37.578;2023-05-22T07:48:45;100573.50;;;23.82;27.19
42691;BME280;28306;55.744;37.578;2023-05-22T07:51:10;100571.41;;;23.84;27.05
42691;BME280;28306;55.744;37.578;2023-05-22T07:53:38;100570.34;;;23.85;27.27
42691;BME280;28306;55.744;37.578;2023-05-22T07:56:05;100561.97;;;23.86;27.01
42691;BME280;28306;55.744;37.578;2023-05-22T07:58:31;100561.72;;;23.88;26.95
42691;BME280;28306;55.744;37.578;2023-05-22T08:00:59;100561.50;;;23.89;26.87
42691;BME280;28306;55.744;37.578;2023-05-22T08:03:25;100563.16;;;23.90;26.99
42691;BME280;28306;55.744;37.578;2023-05-22T08:05:51;100571.88;;;23.92;27.14
42691;BME280;28306;55.744;37.578;2023-05-22T08:08:16;100575.44;;;23.93;27.00
42691;BME280;28306;55.744;37.578;2023-05-22T08:10:42;100581.72;;;23.93;26.89
42691;BME280;28306;55.744;37.578;2023-05-22T08:13:07;100586.28;;;23.93;26.88
42691;BME280;28306;55.744;37.578;2023-05-22T08:15:33;100578.16;;;23.93;27.00
42691;BME280;28306;55.744;37.578;2023-05-22T08:17:59;100587.16;;;23.93;27.13
42691;BME280;28306;55.744;37.578;2023-05-22T08:20:24;100581.47;;;23.95;27.01
42691;BME280;28306;55.744;37.578;2023-05-22T08:22:50;100585.81;;;23.96;26.89
42691;BME280;28306;55.744;37.578;2023-05-22T08:25:15;100584.53;;;23.99;26.94
42691;BME280;28306;55.744;37.578;2023-05-22T08:27:41;100591.63;;;24.00;26.88
42691;BME280;28306;55.744;37.578;2023-05-22T08:30:06;100585.13;;;24.01;26.92
42691;BME280;28306;55.744;37.578;2023-05-22T08:32:32;100585.72;;;24.03;27.05
42691;BME280;28306;55.744;37.578;2023-05-22T08:34:57;100578.16;;;24.05;26.73
42691;BME280;28306;55.744;37.578;2023-05-22T08:37:23;100583.94;;;24.08;27.08
42691;BME280;28306;55.744;37.578;2023-05-22T08:39:49;100568.19;;;24.10;26.96
42691;BME280;28306;55.744;37.578;2023-05-22T08:42:14;100566.91;;;24.13;26.71
42691;BME280;28306;55.744;37.578;2023-05-22T08:44:40;100571.06;;;24.16;26.81
42691;BME280;28306;55.744;37.578;2023-05-22T08:47:06;100569.16;;;24.16;26.69
42691;BME280;28306;55.744;37.578;2023-05-22T08:49:36;100569.72;;;24.18;26.79
42691;BME280;28306;55.744;37.578;2023-05-22T08:52:04;100565.47;;;24.22;26.78
42691;BME280;28306;55.744;37.578;2023-05-22T08:54:30;100561.47;;;24.25;26.53
42691;BME280;28306;55.744;37.578;2023-05-22T08:56:57;100558.28;;;24.28;26.74
42691;BME280;28306;55.744;37.578;2023-05-22T08:59:23;100556.94;;;24.31;26.76
42691;BME280;28306;55.744;37.578;2023-05-22T09:01:49;100546.44;;;24.34;26.62
42691;BME280;28306;55.744;37.578;2023-05-22T09:04:16;100545.34;;;24.35;26.53
42691;BME280;28306;55.744;37.578;2023-05-22T09:06:45;100541.91;;;24.40;26.36
42691;BME280;28306;55.744;37.578;2023-05-22T09:09:11;100536.81;;;24.43;26.57
42691;BME280;28306;55.744;37.578;2023-05-22T09:11:36;100541.53;;;24.48;26.47
42691;BME280;28306;55.744;37.578;2023-05-22T09:14:05;100545.44;;;24.52;26.55
42691;BME280;28306;55.744;37.578;2023-05-22T09:16:31;100544.97;;;24.55;26.48
42691;BME280;28306;55.744;37.578;2023-05-22T09:18:56;100552.66;;;24.58;26.56
42691;BME280;28306;55.744;37.578;2023-05-22T09:21:25;100547.81;;;24.60;26.26
42691;BME280;28306;55.744;37.578;2023-05-22T09:23:51;100552.75;;;24.63;26.40
42691;BME280;28306;55.744;37.578;2023-05-22T09:26:17;100551.69;;;24.64;26.39
42691;BME280;28306;55.744;37.578;2023-05-22T09:28:42;100552.28;;;24.67;26.35
42691;BME280;28306;55.744;37.578;2023-05-22T09:31:08;100555.84;;;24.67;26.42
42691;BME280;28306;55.744;37.578;2023-05-22T09:33:34;100547.16;;;24.70;26.22
42691;BME280;28306;55.744;37.578;2023-05-22T09:36:01;100555.94;;;24.72;26.17
42691;BME280;28306;55.744;37.578;2023-05-22T09:38:28;100541.25;;;24.73;26.31
42691;BME280;28306;55.744;37.578;2023-05-22T09:40:54;100546.19;;;24.76;26.25
42691;BME280;28306;55.744;37.578;2023-05-22T09:43:20;100553.06;;;24.79;26.15
42691;BME280;28306;55.744;37.578;2023-05-22T09:45:45;100535.69;;;24.80;26.27
42691;BME280;28306;55.744;37.578;2023-05-22T09:48:11;100530.56;;;24.83;26.10
42691;BME280;28306;55.744;37.578;2023-05-22T09:50:40;100531.13;;;24.86;26.06
42691;BME280;28306;55.744;37.578;2023-05-22T09:53:06;100533.38;;;24.89;26.16
42691;BME280;28306;55.744;37.578;2023-05-22T09:55:32;100538.34;;;24.92;26.18
42691;BME280;28306;55.744;37.578;2023-05-22T09:58:01;100536.47;;;24.92;26.10
42691;BME280;28306;55.744;37.578;2023-05-22T10:00:27;100527.81;;;24.95;26.15
42691;BME280;28306;55.744;37.578;2023-05-22T10:03:05;100534.88;;;24.96;26.19
42691;BME280;28306;55.744;37.578;2023-05-22T10:05:32;100531.66;;;24.99;26.04
42691;BME280;28306;55.744;37.578;2023-05-22T10:10:54;100519.47;;;25.02;26.10
42691;BME280;28306;55.744;37.578;2023-05-22T10:13:20;100525.72;;;25.03;26.04
42691;BME280;28306;55.744;37.578;2023-05-22T10:15:46;100523.81;;;25.03;26.17
42691;BME280;28306;55.744;37.578;2023-05-22T10:18:13;100525.50;;;25.04;25.92
42691;BME280;28306;55.744;37.578;2023-05-22T10:20:39;100521.94;;;25.04;25.93
42691;BME280;28306;55.744;37.578;2023-05-22T10:23:05;100515.66;;;25.03;26.01
42691;BME280;28306;55.744;37.578;2023-05-22T10:25:32;100520.53;;;25.01;26.10
42691;BME280;28306;55.744;37.578;2023-05-22T10:27:58;100520.78;;;24.99;26.06
42691;BME280;28306;55.744;37.578;2023-05-22T10:33:21;100519.72;;;25.00;25.97
42691;BME280;28306;55.744;37.578;2023-05-22T10:40:38;100521.72;;;25.05;26.02
42691;BME280;28306;55.744;37.578;2023-05-22T10:43:05;100516.25;;;25.05;26.00
42691;BME280;28306;55.744;37.578;2023-05-22T10:45:31;100521.72;;;25.05;26.05
42691;BME280;28306;55.744;37.578;2023-05-22T10:48:00;100520.03;;;25.04;26.17
42691;BME280;28306;55.744;37.578;2023-05-22T10:50:26;100516.25;;;25.05;26.09
42691;BME280;28306;55.744;37.578;2023-05-22T10:52:51;100518.75;;;25.07;26.16
42691;BME280;28306;55.744;37.578;2023-05-22T10:55:45;100514.44;;;25.11;25.88
42691;BME280;28306;55.744;37.578;2023-05-22T10:58:14;100513.38;;;25.12;26.08
42691;BME280;28306;55.744;37.578;2023-05-22T11:00:39;100517.50;;;25.14;25.81
42691;BME280;28306;55.744;37.578;2023-05-22T11:03:05;100509.66;;;25.18;25.87
42691;BME280;28306;55.744;37.578;2023-05-22T11:08:08;100497.28;;;25.27;25.61
42691;BME280;28306;55.744;37.578;2023-05-22T11:10:52;100506.41;;;25.33;25.62
42691;BME280;28306;55.744;37.578;2023-05-22T11:13:18;100498.56;;;25.36;25.62
42691;BME280;28306;55.744;37.578;2023-05-22T11:15:46;100498.88;;;25.40;25.60
42691;BME280;28306;55.744;37.578;2023-05-22T11:18:12;100500.06;;;25.44;25.60
42691;BME280;28306;55.744;37.578;2023-05-22T11:20:40;100493.84;;;25.49;25.68
42691;BME280;28306;55.744;37.578;2023-05-22T11:23:06;100498.56;;;25.53;25.42
42691;BME280;28306;55.744;37.578;2023-05-22T11:25:33;100491.53;;;25.58;25.52
42691;BME280;28306;55.744;37.578;2023-05-22T11:28:00;100492.44;;;25.63;25.57
42691;BME280;28306;55.744;37.578;2023-05-22T11:30:26;100497.13;;;25.68;25.66
42691;BME280;28306;55.744;37.578;2023-05-22T11:32:52;100496.38;;;25.72;25.57
42691;BME280;28306;55.744;37.578;2023-05-22T11:35:18;100485.81;;;25.76;25.49
42691;BME280;28306;55.744;37.578;2023-05-22T11:37:45;100487.53;;;25.82;25.47
42691;BME280;28306;55.744;37.578;2023-05-22T11:40:12;100485.44;;;25.89;25.33
42691;BME280;28306;55.744;37.578;2023-05-22T11:42:38;100483.72;;;26.00;25.40
42691;BME280;28306;55.744;37.578;2023-05-22T11:45:03;100482.00;;;26.16;25.20
42691;BME280;28306;55.744;37.578;2023-05-22T11:47:29;100481.53;;;26.47;24.97
42691;BME280;28306;55.744;37.578;2023-05-22T11:49:55;100470.53;;;26.91;24.84
42691;BME280;28306;55.744;37.578;2023-05-22T11:52:21;100474.22;;;27.34;24.37
42691;BME280;28306;55.744;37.578;2023-05-22T11:54:47;100472.22;;;27.62;23.92
42691;BME280;28306;55.744;37.578;2023-05-22T11:57:13;100460.88;;;27.91;23.95
42691;BME280;28306;55.744;37.578;2023-05-22T11:59:39;100455.59;;;28.27;23.62
42691;BME280;28306;55.744;37.578;2023-05-22T12:02:05;100459.00;;;28.60;23.04
42691;BME280;28306;55.744;37.578;2023-05-22T12:04:31;100453.25;;;28.87;22.66
42691;BME280;28306;55.744;37.578;2023-05-22T12:06:57;100456.84;;;28.87;22.37
42691;BME280;28306;55.744;37.578;2023-05-22T12:09:22;100453.28;;;28.92;23.04
42691;BME280;28306;55.744;37.578;2023-05-22T12:11:48;100442.84;;;28.99;22.58
42691;BME280;28306;55.744;37.578;2023-05-22T12:14:14;100446.69;;;29.03;22.67
42691;BME280;28306;55.744;37.578;2023-05-22T12:16:40;100442.31;;;29.07;22.67
42691;BME280;28306;55.744;37.578;2023-05-22T12:19:08;100436.00;;;29.27;22.62
42691;BME280;28306;55.744;37.578;2023-05-22T12:21:36;100444.16;;;29.63;22.35
42691;BME280;28306;55.744;37.578;2023-05-22T12:24:03;100442.69;;;29.97;22.01
42691;BME280;28306;55.744;37.578;2023-05-22T12:26:29;100438.72;;;30.29;21.66
42691;BME280;28306;55.744;37.578;2023-05-22T12:28:54;100435.00;;;30.59;21.52
42691;BME280;28306;55.744;37.578;2023-05-22T12:31:21;100433.41;;;30.87;21.51
42691;BME280;28306;55.744;37.578;2023-05-22T12:33:47;100424.13;;;31.13;21.17
42691;BME280;28306;55.744;37.578;2023-05-22T12:36:12;100422.47;;;31.41;21.10
42691;BME280;28306;55.744;37.578;2023-05-22T12:38:39;100414.22;;;31.70;20.71
42691;BME280;28306;55.744;37.578;2023-05-22T12:41:05;100415.53;;;31.97;20.35
42691;BME280;28306;55.744;37.578;2023-05-22T12:43:31;100408.66;;;32.19;20.21
42691;BME280;28306;55.744;37.578;2023-05-22T12:45:56;100411.13;;;32.39;20.04
42691;BME280;28306;55.744;37.578;2023-05-22T12:48:22;100411.09;;;32.58;19.87
42691;BME280;28306;55.744;37.578;2023-05-22T12:50:47;100398.97;;;32.78;19.80
42691;BME280;28306;55.744;37.578;2023-05-22T12:53:13;100400.25;;;33.00;19.71
42691;BME280;28306;55.744;37.578;2023-05-22T12:55:39;100398.28;;;33.19;19.65
42691;BME280;28306;55.744;37.578;2023-05-22T12:58:05;100388.06;;;33.34;19.35
42691;BME280;28306;55.744;37.578;2023-05-22T13:00:30;100392.97;;;33.51;19.48
42691;BME280;28306;55.744;37.578;2023-05-22T13:02:56;100386.25;;;33.71;19.17
42691;BME280;28306;55.744;37.578;2023-05-22T13:05:21;100395.94;;;33.96;19.12
42691;BME280;28306;55.744;37.578;2023-05-22T13:07:47;100389.44;;;34.15;18.76
42691;BME280;28306;55.744;37.578;2023-05-22T13:10:13;100385.84;;;34.28;18.68
42691;BME280;28306;55.744;37.578;2023-05-22T13:12:38;100389.41;;;34.42;18.71
42691;BME280;28306;55.744;37.578;2023-05-22T13:15:04;100384.75;;;34.52;18.57
42691;BME280;28306;55.744;37.578;2023-05-22T13:17:30;100380.09;;;34.61;18.57
42691;BME280;28306;55.744;37.578;2023-05-22T13:19:55;100381.91;;;34.65;18.46
42691;BME280;28306;55.744;37.578;2023-05-22T13:22:21;100382.19;;;34.78;18.23
42691;BME280;28306;55.744;37.578;2023-05-22T13:24:47;100376.91;;;34.90;18.28
42691;BME280;28306;55.744;37.578;2023-05-22T13:27:14;100367.81;;;34.98;18.25
42691;BME280;28306;55.744;37.578;2023-05-22T13:29:40;100362.50;;;35.11;18.10
42691;BME280;28306;55.744;37.578;2023-05-22T13:32:05;100359.81;;;35.19;17.74
42691;BME280;28306;55.744;37.578;2023-05-22T13:34:30;100361.59;;;35.24;18.00
42691;BME280;28306;55.744;37.578;2023-05-22T13:36:56;100352.81;;;35.22;17.78
42691;BME280;28306;55.744;37.578;2023-05-22T13:39:21;100348.25;;;35.17;17.85
42691;BME280;28306;55.744;37.578;2023-05-22T13:41:47;100348.38;;;35.12;17.73
42691;BME280;28306;55.744;37.578;2023-05-22T13:44:12;100342.75;;;34.95;17.87
42691;BME280;28306;55.744;37.578;2023-05-22T13:46:38;100347.94;;;34.65;18.07
42691;BME280;28306;55.744;37.578;2023-05-22T13:49:03;100339.09;;;34.32;18.10
42691;BME280;28306;55.744;37.578;2023-05-22T13:51:29;100335.81;;;33.93;18.44
42691;BME280;28306;55.744;37.578;2023-05-22T13:53:55;100329.75;;;33.54;18.37
42691;BME280;28306;55.744;37.578;2023-05-22T13:56:21;100326.03;;;33.17;18.53
42691;BME280;28306;55.744;37.578;2023-05-22T13:58:46;100339.38;;;32.82;18.92
42691;BME280;28306;55.744;37.578;2023-05-22T14:01:12;100340.97;;;32.50;19.16
42691;BME280;28306;55.744;37.578;2023-05-22T14:03:37;100340.94;;;32.18;19.17
42691;BME280;28306;55.744;37.578;2023-05-22T14:06:03;100339.44;;;31.87;19.24
42691;BME280;28306;55.744;37.578;2023-05-22T14:08:29;100335.69;;;31.59;19.68
42691;BME280;28306;55.744;37.578;2023-05-22T14:10:54;100342.28;;;31.34;19.59
42691;BME280;28306;55.744;37.578;2023-05-22T14:13:20;100343.09;;;31.10;19.81
42691;BME280;28306;55.744;37.578;2023-05-22T14:15:45;100356.19;;;30.89;19.98
42691;BME280;28306;55.744;37.578;2023-05-22T14:18:14;100353.91;;;30.67;19.93
42691;BME280;28306;55.744;37.578;2023-05-22T14:20:43;100345.84;;;30.46;20.18
42691;BME280;28306;55.744;37.578;2023-05-22T14:23:10;100352.25;;;30.26;20.19
42691;BME280;28306;55.744;37.578;2023-05-22T14:25:35;100350.47;;;30.06;20.47
42691;BME280;28306;55.744;37.578;2023-05-22T14:28:01;100356.34;;;29.89;20.61
42691;BME280;28306;55.744;37.578;2023-05-22T14:30:26;100347.59;;;29.72;20.55
42691;BME280;28306;55.744;37.578;2023-05-22T14:32:52;100347.69;;;29.56;20.73
42691;BME280;28306;55.744;37.578;2023-05-22T14:35:17;100334.84;;;29.41;20.74
42691;BME280;28306;55.744;37.578;2023-05-22T14:37:43;100332.44;;;29.29;21.02
42691;BME280;28306;55.744;37.578;2023-05-22T14:40:08;100336.25;;;29.18;21.05
42691;BME280;28306;55.744;37.578;2023-05-22T14:42:35;100330.81;;;29.08;20.82
42691;BME280;28306;55.744;37.578;2023-05-22T14:45:01;100328.59;;;29.00;21.15
42691;BME280;28306;55.744;37.578;2023-05-22T14:47:27;100322.06;;;28.90;21.06
42691;BME280;28306;55.744;37.578;2023-05-22T14:49:52;100322.91;;;28.86;21.00
42691;BME280;28306;55.744;37.578;2023-05-22T14:52:18;100323.16;;;28.79;21.39
42691;BME280;28306;55.744;37.578;2023-05-22T14:54:44;100320.44;;;28.69;21.33
42691;BME280;28306;55.744;37.578;2023-05-22T14:57:09;100317.41;;;28.55;21.41
42691;BME280;28306;55.744;37.578;2023-05-22T14:59:35;100315.78;;;28.44;21.48
42691;BME280;28306;55.744;37.578;2023-05-22T15:02:00;100326.97;;;28.32;21.68
42691;BME280;28306;55.744;37.578;2023-05-22T15:04:26;100323.66;;;28.19;21.74
42691;BME280;28306;55.744;37.578;2023-05-22T15:06:51;100317.34;;;28.09;21.48
42691;BME280;28306;55.744;37.578;2023-05-22T15:09:16;100324.75;;;27.98;21.87
42691;BME280;28306;55.744;37.578;2023-05-22T15:11:42;100314.00;;;27.86;21.96
42691;BME280;28306;55.744;37.578;2023-05-22T15:14:10;100318.34;;;27.77;22.00
42691;BME280;28306;55.744;37.578;2023-05-22T15:16:36;100325.44;;;27.67;22.04
42691;BME280;28306;55.744;37.578;2023-05-22T15:19:01;100329.50;;;27.60;22.09
42691;BME280;28306;55.744;37.578;2023-05-22T15:21:27;100332.22;;;27.49;22.33
42691;BME280;28306;55.744;37.578;2023-05-22T15:23:52;100345.53;;;27.41;22.30
42691;BME280;28306;55.744;37.578;2023-05-22T15:26:18;100347.97;;;27.32;22.26
42691;BME280;28306;55.744;37.578;2023-05-22T15:28:43;100340.81;;;27.26;22.25
42691;BME280;28306;55.744;37.578;2023-05-22T15:31:09;100338.53;;;27.18;22.57
42691;BME280;28306;55.744;37.578;2023-05-22T15:33:35;100333.59;;;27.09;22.40
42691;BME280;28306;55.744;37.578;2023-05-22T15:36:00;100328.91;;;27.05;22.46
42691;BME280;28306;55.744;37.578;2023-05-22T15:38:25;100338.16;;;26.98;22.56
42691;BME280;28306;55.744;37.578;2023-05-22T15:40:52;100331.88;;;26.93;22.55
42691;BME280;28306;55.744;37.578;2023-05-22T15:43:17;100340.00;;;26.88;22.82
42691;BME280;28306;55.744;37.578;2023-05-22T15:45:46;100337.25;;;26.83;22.84
42691;BME280;28306;55.744;37.578;2023-05-22T15:48:15;100338.03;;;26.78;22.70
42691;BME280;28306;55.744;37.578;2023-05-22T15:50:40;100338.00;;;26.73;22.85
42691;BME280;28306;55.744;37.578;2023-05-22T15:53:06;100339.84;;;26.67;22.90
42691;BME280;28306;55.744;37.578;2023-05-22T15:55:32;100353.97;;;26.64;23.09
42691;BME280;28306;55.744;37.578;2023-05-22T15:58:01;100343.84;;;26.59;22.97
42691;BME280;28306;55.744;37.578;2023-05-22T16:00:32;100344.63;;;26.55;23.08
42691;BME280;28306;55.744;37.578;2023-05-22T16:03:03;100344.59;;;26.50;23.11
42691;BME280;28306;55.744;37.578;2023-05-22T16:05:29;100352.47;;;26.46;23.12
42691;BME280;28306;55.744;37.578;2023-05-22T16:07:58;100354.06;;;26.42;23.07
42691;BME280;28306;55.744;37.578;2023-05-22T16:10:24;100360.03;;;26.39;23.19
42691;BME280;28306;55.744;37.578;2023-05-22T16:12:49;100359.75;;;26.35;23.16
42691;BME280;28306;55.744;37.578;2023-05-22T16:15:15;100359.19;;;26.33;23.30
42691;BME280;28306;55.744;37.578;2023-05-22T16:17:40;100355.31;;;26.29;23.25
42691;BME280;28306;55.744;37.578;2023-05-22T16:20:06;100354.75;;;26.27;23.24
42691;BME280;28306;55.744;37.578;2023-05-22T16:22:32;100359.06;;;26.23;23.60
42691;BME280;28306;55.744;37.578;2023-05-22T16:24:59;100353.31;;;26.19;23.62
42691;BME280;28306;55.744;37.578;2023-05-22T16:27:24;100356.81;;;26.15;23.36
42691;BME280;28306;55.744;37.578;2023-05-22T16:29:50;100361.94;;;26.11;23.36
42691;BME280;28306;55.744;37.578;2023-05-22T16:32:15;100363.53;;;26.07;23.64
42691;BME280;28306;55.744;37.578;2023-05-22T16:34:41;100368.66;;;26.03;23.65
42691;BME280;28306;55.744;37.578;2023-05-22T16:37:06;100374.91;;;25.99;23.60
42691;BME280;28306;55.744;37.578;2023-05-22T16:39:32;100362.81;;;25.95;23.67
42691;BME280;28306;55.744;37.578;2023-05-22T16:41:58;100355.16;;;25.92;23.67
42691;BME280;28306;55.744;37.578;2023-05-22T16:44:24;100364.91;;;25.87;23.98
42691;BME280;28306;55.744;37.578;2023-05-22T16:46:49;100359.97;;;25.84;24.00
42691;BME280;28306;55.744;37.578;2023-05-22T16:49:15;100367.84;;;25.81;23.81
42691;BME280;28306;55.744;37.578;2023-05-22T16:51:41;100366.69;;;25.77;24.00
42691;BME280;28306;55.744;37.578;2023-05-22T16:54:06;100360.94;;;25.73;24.01
42691;BME280;28306;55.744;37.578;2023-05-22T16:56:32;100374.25;;;25.69;24.22
42691;BME280;28306;55.744;37.578;2023-05-22T16:58:58;100369.31;;;25.66;24.19
42691;BME280;28306;55.744;37.578;2023-05-22T17:01:24;100374.44;;;25.63;24.23
42691;BME280;28306;55.744;37.578;2023-05-22T17:03:50;100373.28;;;25.59;24.35
42691;BME280;28306;55.744;37.578;2023-05-22T17:06:15;100364.81;;;25.55;24.40
42691;BME280;28306;55.744;37.578;2023-05-22T17:08:41;100368.28;;;25.50;24.42
42691;BME280;28306;55.744;37.578;2023-05-22T17:11:07;100368.78;;;25.47;24.58
42691;BME280;28306;55.744;37.578;2023-05-22T17:13:32;100369.53;;;25.43;24.65
42691;BME280;28306;55.744;37.578;2023-05-22T17:15:58;100371.91;;;25.39;24.47
42691;BME280;28306;55.744;37.578;2023-05-22T17:18:23;100364.25;;;25.36;24.71
42691;BME280;28306;55.744;37.578;2023-05-22T17:20:49;100374.81;;;25.32;24.67